Time;durP1;ratioP1;P1;durP2;ratioP2;P2;SDS_P1;SDS_P2;PMS_P1;PMS_P2;Temp;Humidity;BMP_temperature;BMP_pressure;BME280_temperature;BME280_humidity;BME280_pressure;Samples;Min_cycle;Max_cycle;Signal;HPM_P1;HPM_P2
2022/12/14 00:54:48;;;;;;;50.83;33.05;;;51.90;2227.20;;;;;;4863958;29;20036;-83
2022/12/14 01:01:34;;;;;;;57.47;35.03;;;51.90;2227.20;;;;;;4864486;29;20594;-83
2022/12/14 01:05:33;;;;;;;55.33;33.83;;;51.90;1868.80;;;;;;4866422;29;20037;-82
2022/12/14 01:08:55;;;;;;;57.70;35.33;;;52.00;2227.20;;;;;;4834193;29;20038;-83
2022/12/14 01:16:04;;;;;;;71.20;42.80;;;51.90;2227.20;;;;;;4798505;29;20119;-84
2022/12/14 01:19:37;;;;;;;68.78;38.97;;;51.90;2227.20;;;;;;4774437;30;20530;-82
2022/12/14 01:22:47;;;;;;;63.63;38.33;;;52.00;2227.20;;;;;;4775229;30;20044;-85
2022/12/14 01:26:10;;;;;;;76.65;41.45;;;52.00;1971.20;;;;;;4753056;30;20036;-85
2022/12/14 02:32:12;;;;;;;59.92;36.83;;;51.50;2227.20;;;;;;4770915;30;20043;-81
2022/12/14 03:17:32;;;;;;;60.95;36.30;;;51.30;2227.20;;;;;;4860119;29;20098;-81
2022/12/14 03:27:54;;;;;;;42.08;24.98;;;51.20;2227.20;;;;;;4806723;29;20373;-81
2022/12/14 03:34:42;;;;;;;42.33;26.00;;;51.30;2227.20;;;;;;4767834;30;20075;-81
2022/12/14 03:38:04;;;;;;;45.97;27.73;;;51.30;2227.20;;;;;;4733436;30;20075;-84
2022/12/14 03:45:01;;;;;;;42.65;27.35;;;51.40;2227.20;;;;;;4723320;30;20085;-82
2022/12/14 06:30:57;;;;;;;66.47;42.92;;;51.40;2227.20;;;;;;4930805;29;20051;-83
2022/12/14 06:41:42;;;;;;;72.85;44.33;;;51.80;2227.20;;;;;;4902443;29;20044;-84
2022/12/14 06:52:04;;;;;;;74.10;45.75;;;51.90;2227.20;;;;;;4795112;30;20080;-83
2022/12/14 07:08:53;;;;;;;115.97;66.82;;;51.90;2227.20;;;;;;4802533;29;20134;-83
2022/12/14 07:58:59;;;;;;;81.10;49.28;;;51.90;2227.20;;;;;;4985493;28;20049;-83
2022/12/14 08:09:30;;;;;;;104.00;62.53;;;52.10;2227.20;;;;;;4982096;28;20069;-83
2022/12/14 08:13:09;;;;;;;100.20;59.45;;;52.00;2227.20;;;;;;4921516;29;20173;-83
2022/12/14 08:23:43;;;;;;;97.22;59.72;;;51.90;2227.20;;;;;;4936830;29;20063;-79
2022/12/14 08:26:51;;;;;;;119.13;72.63;;;52.00;2227.20;;;;;;4864205;29;20093;-80
2022/12/14 08:30:30;;;;;;;132.85;84.50;;;76.80;2227.20;;;;;;4846023;29;20151;-84
2022/12/14 08:49:53;;;;;;;149.98;89.43;;;77.00;2227.20;;;;;;4844718;29;20056;-85
2022/12/14 08:53:17;;;;;;;160.00;104.65;;;77.00;2227.20;;;;;;4857565;29;20427;-83
2022/12/14 08:59:40;;;;;;;146.93;102.97;;;77.10;2227.20;;;;;;4824535;29;20042;-85
2022/12/14 09:02:09;;;;;;;146.30;94.25;;;77.10;2227.20;;;;;;4808937;29;20121;-81
2022/12/14 09:04:35;;;;;;;137.80;88.20;;;77.10;2227.20;;;;;;4808685;29;20043;-84
2022/12/14 09:07:02;;;;;;;115.47;74.93;;;77.20;2227.20;;;;;;4843398;29;20044;-81
2022/12/14 09:09:27;;;;;;;107.13;68.15;;;77.10;2227.20;;;;;;4887540;29;20032;-80
2022/12/14 09:11:53;;;;;;;104.03;70.45;;;77.00;2227.20;;;;;;4900943;29;20540;-78
2022/12/14 09:14:20;;;;;;;96.00;64.30;;;77.10;2227.20;;;;;;4902528;29;20076;-80
2022/12/14 09:16:46;;;;;;;93.80;63.42;;;77.10;2227.20;;;;;;4944695;29;20391;-77
2022/12/14 09:19:12;;;;;;;93.88;59.10;;;77.10;2227.20;;;;;;4943632;28;20158;-81
2022/12/14 09:21:38;;;;;;;84.85;53.70;;;77.20;2227.20;;;;;;4972106;28;20086;-79
2022/12/14 09:24:05;;;;;;;140.57;90.57;;;77.20;2227.20;;;;;;4971745;28;20035;-82
2022/12/14 09:26:32;;;;;;;129.75;84.95;;;76.90;2227.20;;;;;;4973944;28;20034;-80
2022/12/14 09:28:58;;;;;;;96.60;66.00;;;77.40;2227.20;;;;;;4972908;28;20110;-80
2022/12/14 09:31:26;;;;;;;106.25;72.18;;;77.50;2227.20;;;;;;4971577;28;20182;-79
2022/12/14 09:33:53;;;;;;;89.63;60.20;;;77.60;2227.20;;;;;;4964435;28;20035;-79
2022/12/14 09:36:25;;;;;;;90.97;59.50;;;77.70;2227.20;;;;;;4954866;28;20107;-79
2022/12/14 09:38:54;;;;;;;73.63;51.22;;;102.40;2227.20;;;;;;4965498;28;20479;-78
2022/12/14 09:41:35;;;;;;;77.40;52.83;;;77.70;2227.20;;;;;;4964950;28;20478;-81
2022/12/14 09:44:33;;;;;;;85.28;55.90;;;77.70;2227.20;;;;;;4974326;28;20058;-80
2022/12/14 09:47:04;;;;;;;84.80;57.40;;;77.70;2227.20;;;;;;4974514;28;20031;-83
2022/12/14 09:49:42;;;;;;;95.30;62.35;;;77.50;2227.20;;;;;;4974167;28;20059;-82
2022/12/14 09:52:40;;;;;;;93.47;63.10;;;77.70;2227.20;;;;;;4973977;28;20050;-80
2022/12/14 09:55:35;;;;;;;81.20;56.25;;;77.60;2227.20;;;;;;4954488;29;20059;-79
2022/12/14 09:58:21;;;;;;;81.70;56.70;;;77.70;2227.20;;;;;;4957087;28;20039;-81
2022/12/14 10:08:12;;;;;;;90.93;61.80;;;102.40;2227.20;;;;;;4956850;29;20090;-85
2022/12/14 10:14:42;;;;;;;87.03;58.30;;;102.60;2227.20;;;;;;4975872;28;20509;-85
2022/12/14 10:20:36;;;;;;;83.35;52.42;;;102.80;2227.20;;;;;;4976541;28;20568;-88
2022/12/14 10:23:03;;;;;;;88.35;56.97;;;103.00;2227.20;;;;;;4975121;28;20455;-86
2022/12/14 10:25:33;;;;;;;92.43;60.22;;;102.90;2227.20;;;;;;4974732;28;20062;-86
2022/12/14 10:28:09;;;;;;;76.60;50.35;;;102.90;2227.20;;;;;;4974313;28;20053;-88
2022/12/14 10:30:36;;;;;;;84.53;58.83;;;102.90;2227.20;;;;;;4974943;28;20038;-85
2022/12/14 10:33:16;;;;;;;88.72;60.97;;;102.80;2227.20;;;;;;4970751;28;20117;-83
2022/12/14 10:49:03;;;;;;;178.63;102.10;;;103.00;2227.20;;;;;;4975618;28;20090;-87
2022/12/14 10:52:16;;;;;;;156.52;97.10;;;103.00;2227.20;;;;;;4987006;28;20023;-85
2022/12/14 10:54:55;;;;;;;93.20;67.32;;;103.00;2227.20;;;;;;4995710;28;20049;-87
2022/12/14 10:57:25;;;;;;;81.30;57.00;;;102.90;2227.20;;;;;;4996699;28;20094;-87
2022/12/14 10:59:52;;;;;;;69.93;49.42;;;102.90;2227.20;;;;;;4993606;28;20030;-86
2022/12/14 11:02:28;;;;;;;79.32;58.92;;;102.90;2227.20;;;;;;4992254;28;20027;-90
2022/12/14 11:05:52;;;;;;;64.20;42.42;;;102.80;2227.20;;;;;;4998298;28;20027;-87
2022/12/14 11:08:40;;;;;;;77.18;53.22;;;102.80;2227.20;;;;;;4904394;29;20024;-88
2022/12/14 11:11:09;;;;;;;78.38;49.97;;;102.90;2227.20;;;;;;4891444;29;20056;-88
2022/12/14 11:13:35;;;;;;;59.03;42.22;;;102.90;2227.20;;;;;;4943541;28;20423;-87
2022/12/14 11:16:27;;;;;;;71.03;44.40;;;102.90;2227.20;;;;;;4977417;28;20043;-88
2022/12/14 11:19:00;;;;;;;82.93;56.22;;;102.90;2227.20;;;;;;4976952;28;20395;-82
2022/12/14 11:21:32;;;;;;;64.88;43.75;;;102.90;2227.20;;;;;;4977455;28;20094;-86
2022/12/14 11:23:58;;;;;;;66.45;46.20;;;103.00;2227.20;;;;;;4977249;28;20026;-86
2022/12/14 11:26:31;;;;;;;78.90;55.17;;;103.00;2227.20;;;;;;4977329;28;20133;-87
2022/12/14 11:28:59;;;;;;;108.55;74.20;;;103.10;2227.20;;;;;;4977189;28;20058;-88
2022/12/14 11:31:29;;;;;;;168.63;111.45;;;103.00;2227.20;;;;;;4977131;28;20042;-87
2022/12/14 11:33:57;;;;;;;178.23;114.72;;;103.00;2227.20;;;;;;4977168;28;20113;-89
2022/12/14 11:36:28;;;;;;;149.80;98.25;;;103.00;2227.20;;;;;;4976296;28;20030;-88
2022/12/14 11:38:59;;;;;;;133.15;88.85;;;103.10;2227.20;;;;;;4977341;28;20031;-88
2022/12/14 11:41:38;;;;;;;97.15;66.57;;;103.10;2176.00;;;;;;4975899;28;20026;-88
2022/12/14 11:44:20;;;;;;;79.10;53.15;;;103.10;2227.20;;;;;;4973264;28;20482;-87
2022/12/14 11:47:05;;;;;;;77.88;54.25;;;103.20;2227.20;;;;;;4976680;28;20058;-87
2022/12/14 11:49:37;;;;;;;77.18;53.35;;;103.20;2227.20;;;;;;4975672;28;20050;-88
2022/12/14 11:52:17;;;;;;;83.85;54.38;;;103.20;2227.20;;;;;;4976811;28;20508;-85
2022/12/14 11:55:04;;;;;;;79.80;53.95;;;103.20;2227.20;;;;;;4976063;28;20051;-86
2022/12/14 11:57:38;;;;;;;91.68;59.42;;;103.30;2227.20;;;;;;4965961;28;20487;-89
2022/12/14 12:00:06;;;;;;;107.60;71.35;;;;;;;;;;4976219;28;20034;-87
2022/12/14 12:02:36;;;;;;;145.65;96.00;;;128.10;2252.80;;;;;;4993194;28;20113;-86
2022/12/14 12:05:15;;;;;;;105.38;72.85;;;103.30;2227.20;;;;;;4975567;28;20163;-84
2022/12/14 12:07:54;;;;;;;132.73;88.10;;;103.20;2227.20;;;;;;4976523;28;20034;-88
2022/12/14 12:10:42;;;;;;;128.07;84.60;;;103.30;2227.20;;;;;;4976271;28;20479;-87
2022/12/14 12:13:30;;;;;;;153.00;101.00;;;103.30;2227.20;;;;;;4976099;28;20030;-86
2022/12/14 12:16:04;;;;;;;196.27;132.40;;;103.20;2227.20;;;;;;4976006;28;20023;-88
2022/12/14 12:18:54;;;;;;;194.38;125.28;;;103.30;2227.20;;;;;;4974427;28;20027;-88
2022/12/14 12:21:23;;;;;;;179.48;117.07;;;128.00;2252.80;;;;;;4973324;28;20061;-88
2022/12/14 12:24:06;;;;;;;160.55;104.78;;;128.00;2252.80;;;;;;4972054;28;20032;-87
2022/12/14 12:26:44;;;;;;;;;;;128.00;2252.80;;;;;;4973395;28;20077;-87
2022/12/14 12:29:10;;;;;;;159.48;104.07;;;128.00;2252.80;;;;;;4972898;28;20363;-89
2022/12/14 12:32:13;;;;;;;189.77;114.82;;;128.00;2252.80;;;;;;4973193;28;20082;-87
2022/12/14 12:34:53;;;;;;;171.07;104.82;;;128.00;2252.80;;;;;;4973024;28;20035;-88
2022/12/14 12:37:34;;;;;;;155.23;97.15;;;128.10;2252.80;;;;;;4972934;28;20035;-88
2022/12/14 12:40:09;;;;;;;146.23;90.60;;;128.10;2252.80;;;;;;4972837;28;20468;-88
2022/12/14 12:42:46;;;;;;;161.57;95.18;;;128.10;2252.80;;;;;;4972718;28;20035;-87
2022/12/14 12:45:29;;;;;;;153.90;93.95;;;128.10;2252.80;;;;;;4972183;28;20081;-89
2022/12/14 12:48:02;;;;;;;133.98;86.35;;;128.10;2252.80;;;;;;4956625;29;20035;-88
2022/12/14 12:50:33;;;;;;;;;;;128.10;2252.80;;;;;;4956041;29;20035;-88
2022/12/14 12:53:30;;;;;;;138.38;84.63;;;128.00;2252.80;;;;;;4956712;29;19907;-88
2022/12/14 12:56:06;;;;;;;154.77;97.13;;;103.30;2227.20;;;;;;4956651;29;20047;-86
2022/12/14 12:58:34;;;;;;;178.02;105.03;;;128.00;2252.80;;;;;;4956228;29;20028;-87
2022/12/14 13:01:15;;;;;;;96.00;66.75;;;128.10;2252.80;;;;;;4956392;29;20082;-88
2022/12/14 13:03:50;;;;;;;121.72;83.00;;;128.10;2252.80;;;;;;4956256;29;20146;-87
2022/12/14 13:06:22;;;;;;;116.18;75.22;;;128.00;2252.80;;;;;;4956201;29;20034;-88
2022/12/14 13:08:55;;;;;;;157.95;92.85;;;128.00;2252.80;;;;;;4956337;29;20023;-87
2022/12/14 13:11:42;;;;;;;116.82;75.63;;;128.10;2252.80;;;;;;4955777;29;20118;-88
2022/12/14 13:14:20;;;;;;;126.18;75.20;;;128.00;2252.80;;;;;;4955877;29;20134;-88
2022/12/14 13:16:48;;;;;;;114.25;74.18;;;128.00;2252.80;;;;;;4956133;29;20035;-86
2022/12/14 13:19:21;;;;;;;127.60;85.70;;;103.30;2227.20;;;;;;4955643;29;20063;-88
2022/12/14 13:21:48;;;;;;;;;;;103.30;2227.20;;;;;;4956377;29;20365;-88
2022/12/14 13:24:20;;;;;;;107.45;72.68;;;103.30;2227.20;;;;;;4955875;29;19914;-87
2022/12/14 13:27:08;;;;;;;111.00;76.72;;;128.00;2252.80;;;;;;4954976;28;20034;-88
2022/12/14 13:30:13;;;;;;;126.20;87.45;;;103.30;2227.20;;;;;;4956154;29;20391;-88
2022/12/14 13:33:08;;;;;;;139.80;96.65;;;103.30;2227.20;;;;;;4954606;29;20555;-89
2022/12/14 13:35:33;;;;;;;140.25;92.65;;;128.00;2252.80;;;;;;4955600;29;20031;-87
2022/12/14 13:38:18;;;;;;;104.90;70.85;;;103.20;2227.20;;;;;;4955661;29;20118;-86
2022/12/14 13:40:43;;;;;;;98.72;69.90;;;103.20;2227.20;;;;;;4955497;29;20078;-87
2022/12/14 13:43:16;;;;;;;90.97;64.32;;;103.30;2227.20;;;;;;4955620;29;20035;-87
2022/12/14 13:45:45;;;;;;;101.85;72.53;;;103.20;2227.20;;;;;;4955532;29;20039;-88
2022/12/14 13:48:27;;;;;;;124.03;85.03;;;103.20;2227.20;;;;;;4955741;29;20035;-88
2022/12/14 13:51:03;;;;;;;136.32;93.10;;;103.30;2227.20;;;;;;4939466;29;20034;-89
2022/12/14 13:53:48;;;;;;;158.15;101.78;;;103.20;2227.20;;;;;;4955113;29;20027;-87
2022/12/14 13:56:24;;;;;;;151.52;95.05;;;103.20;2227.20;;;;;;4955208;29;20492;-88
2022/12/14 13:58:53;;;;;;;126.53;85.95;;;103.30;2227.20;;;;;;4955462;29;20099;-87
2022/12/14 14:01:22;;;;;;;109.93;79.10;;;103.20;2227.20;;;;;;4954703;29;20030;-87
2022/12/14 14:04:13;;;;;;;115.28;79.53;;;103.20;2227.20;;;;;;4955189;29;20039;-89
2022/12/14 14:06:43;;;;;;;150.45;92.75;;;103.20;2227.20;;;;;;4954785;29;20027;-86
2022/12/14 14:09:47;;;;;;;126.55;80.35;;;103.20;2227.20;;;;;;4954979;29;20061;-89
2022/12/14 14:15:52;;;;;;;132.77;90.93;;;103.30;2227.20;;;;;;4955892;29;20042;-88
2022/12/14 14:18:30;;;;;;;135.93;91.88;;;103.20;2227.20;;;;;;4955203;29;20067;-87
2022/12/14 14:21:20;;;;;;;115.60;79.28;;;103.20;2227.20;;;;;;4954851;29;20046;-88
2022/12/14 14:24:05;;;;;;;114.78;76.28;;;103.20;2227.20;;;;;;4954891;29;20519;-87
2022/12/14 14:26:33;;;;;;;110.18;73.22;;;103.20;2227.20;;;;;;4954881;29;20027;-87
2022/12/14 14:29:31;;;;;;;108.10;74.85;;;103.20;2227.20;;;;;;4954762;29;20027;-87
2022/12/14 14:32:26;;;;;;;153.48;103.43;;;103.30;2227.20;;;;;;4955161;29;20035;-89
2022/12/14 14:34:53;;;;;;;225.73;132.95;;;103.20;2227.20;;;;;;4944453;29;20035;-88
2022/12/14 14:37:18;;;;;;;195.50;128.52;;;103.20;2227.20;;;;;;4956493;28;20034;-89
2022/12/14 14:40:11;;;;;;;214.18;142.48;;;103.20;2227.20;;;;;;4958909;29;20110;-88
2022/12/14 14:46:03;;;;;;;93.68;67.20;;;103.10;2227.20;;;;;;4960039;29;20402;-87
2022/12/14 14:48:41;;;;;;;86.97;61.97;;;103.10;2227.20;;;;;;4959925;28;20035;-90
2022/12/14 14:51:37;;;;;;;83.45;61.97;;;103.10;2227.20;;;;;;4958678;29;20414;-88
2022/12/14 14:57:55;;;;;;;143.73;95.90;;;103.10;2227.20;;;;;;4958170;29;20045;-86
2022/12/14 15:00:24;;;;;;;135.15;92.95;;;103.10;2227.20;;;;;;4958477;29;20035;-88
2022/12/14 15:02:53;;;;;;;177.68;123.32;;;103.20;2227.20;;;;;;4957900;29;20023;-88
2022/12/14 15:05:31;;;;;;;167.48;117.43;;;103.20;2227.20;;;;;;4958267;29;20034;-88
2022/12/14 15:07:58;;;;;;;153.93;109.50;;;103.20;2227.20;;;;;;4958427;29;20030;-87
2022/12/14 15:14:14;;;;;;;84.93;59.60;;;103.20;2227.20;;;;;;4959617;29;20053;-88
2022/12/14 15:16:43;;;;;;;90.65;62.53;;;103.20;2227.20;;;;;;4959174;29;20031;-88
2022/12/14 15:19:32;;;;;;;99.88;71.70;;;103.20;2227.20;;;;;;4957992;29;20444;-89
2022/12/14 15:22:18;;;;;;;115.13;81.03;;;103.20;2227.20;;;;;;4958309;29;20097;-88
2022/12/14 15:24:46;;;;;;;150.52;103.65;;;103.30;2227.20;;;;;;4957534;29;20023;-88
2022/12/14 15:27:27;;;;;;;162.20;111.53;;;103.20;2227.20;;;;;;4957829;29;20031;-88
2022/12/14 15:29:59;;;;;;;178.40;122.15;;;103.20;2227.20;;;;;;4958030;29;20058;-88
2022/12/14 15:32:25;;;;;;;;;;;103.30;2227.20;;;;;;4957899;29;20051;-89
2022/12/14 15:34:57;;;;;;;159.90;105.82;;;103.30;2227.20;;;;;;4957677;29;19906;-88
2022/12/14 15:37:32;;;;;;;158.75;108.28;;;103.30;2227.20;;;;;;4957734;29;20030;-88
2022/12/14 15:40:12;;;;;;;159.63;109.35;;;103.30;2227.20;;;;;;4957555;29;20487;-88
2022/12/14 15:42:53;;;;;;;156.07;105.13;;;103.30;2227.20;;;;;;4957876;29;20027;-87
2022/12/14 15:45:23;;;;;;;144.10;98.18;;;128.00;2252.80;;;;;;4957586;29;20036;-90
2022/12/14 15:47:50;;;;;;;178.00;111.90;;;128.00;2252.80;;;;;;4957757;28;20392;-88
2022/12/14 15:50:22;;;;;;;152.98;101.75;;;103.30;2227.20;;;;;;4957811;29;20109;-87
2022/12/14 15:52:49;;;;;;;120.72;81.25;;;103.30;2227.20;;;;;;4957546;29;20380;-87
2022/12/14 15:55:35;;;;;;;203.57;124.80;;;103.30;2227.20;;;;;;4957638;29;20046;-87
2022/12/14 15:58:35;;;;;;;199.55;132.13;;;103.30;2227.20;;;;;;4958047;29;20066;-88
2022/12/14 16:01:24;;;;;;;169.00;119.57;;;128.00;2252.80;;;;;;4957211;29;20091;-87
2022/12/14 16:03:54;;;;;;;167.48;118.10;;;103.30;2227.20;;;;;;4957488;29;20031;-89
2022/12/14 16:06:22;;;;;;;172.80;118.85;;;103.30;2227.20;;;;;;4957171;29;20118;-88
2022/12/14 16:09:03;;;;;;;171.07;114.53;;;103.30;2227.20;;;;;;4957349;29;20027;-88
2022/12/14 16:11:41;;;;;;;209.63;136.63;;;103.30;2227.20;;;;;;4957390;29;20030;-89
2022/12/14 16:14:44;;;;;;;245.60;160.13;;;103.30;2227.20;;;;;;4956980;29;20034;-89
2022/12/14 16:17:17;;;;;;;200.18;134.43;;;103.30;2227.20;;;;;;4957205;29;20387;-87
2022/12/14 16:19:56;;;;;;;166.35;117.47;;;103.30;2227.20;;;;;;4957093;29;20031;-91
2022/12/14 16:22:25;;;;;;;169.50;113.32;;;103.30;2227.20;;;;;;4957178;29;20423;-88
2022/12/14 16:25:06;;;;;;;156.23;110.57;;;103.30;2227.20;;;;;;4956869;29;20081;-87
2022/12/14 16:27:36;;;;;;;262.05;165.13;;;128.00;2252.80;;;;;;4956737;29;20035;-88
2022/12/14 16:30:26;;;;;;;241.10;166.98;;;128.00;2252.80;;;;;;4957009;29;20038;-88
2022/12/14 16:33:23;;;;;;;179.13;120.85;;;103.20;2227.20;;;;;;4957060;29;20502;-90
2022/12/14 16:36:06;;;;;;;176.05;121.43;;;103.30;2227.20;;;;;;4956239;29;20023;-88
2022/12/14 16:38:34;;;;;;;;;;;103.30;2227.20;;;;;;4957049;29;20222;-88
2022/12/14 16:41:02;;;;;;;163.98;108.65;;;103.30;2227.20;;;;;;4956394;29;19953;-89
2022/12/14 16:43:35;;;;;;;209.25;138.20;;;103.30;2227.20;;;;;;4956998;29;20023;-89
2022/12/14 16:46:08;;;;;;;182.20;122.22;;;103.30;2227.20;;;;;;4972877;28;20081;-89
2022/12/14 16:48:46;;;;;;;139.93;94.15;;;128.00;2252.80;;;;;;4975886;28;20035;-88
2022/12/14 16:51:18;;;;;;;164.88;110.40;;;128.00;2252.80;;;;;;4975348;28;20042;-87
2022/12/14 16:53:50;;;;;;;118.20;85.55;;;103.30;2227.20;;;;;;4976754;28;20031;-87
2022/12/14 16:56:23;;;;;;;99.72;71.85;;;103.30;2227.20;;;;;;4975222;28;20138;-88
2022/12/14 16:58:59;;;;;;;94.07;63.97;;;103.30;2227.20;;;;;;4975344;28;20121;-88
2022/12/14 17:01:26;;;;;;;95.13;64.55;;;103.20;2227.20;;;;;;4974748;28;20023;-88
2022/12/14 17:04:04;;;;;;;79.07;55.20;;;103.30;2227.20;;;;;;4975503;28;20046;-88
2022/12/14 17:06:36;;;;;;;78.68;56.97;;;103.30;2227.20;;;;;;4985528;28;20034;-86
2022/12/14 17:09:04;;;;;;;83.68;57.85;;;103.30;2227.20;;;;;;5000089;28;20058;-85
2022/12/14 17:11:30;;;;;;;99.38;66.30;;;103.30;2227.20;;;;;;4981222;28;20030;-86
2022/12/14 17:13:56;;;;;;;88.60;60.20;;;103.30;2227.20;;;;;;4974909;28;20034;-88
2022/12/14 17:16:21;;;;;;;80.38;56.70;;;103.30;2227.20;;;;;;4975481;28;20031;-87
2022/12/14 17:18:48;;;;;;;94.32;63.50;;;103.30;2227.20;;;;;;4974648;28;20030;-87
2022/12/14 17:21:25;;;;;;;94.43;61.92;;;103.20;2227.20;;;;;;4974768;28;20033;-87
2022/12/14 17:23:52;;;;;;;81.43;57.38;;;103.20;2227.20;;;;;;4975498;28;20038;-88
2022/12/14 17:26:21;;;;;;;97.70;63.40;;;103.20;2227.20;;;;;;4974953;28;20065;-86
2022/12/14 17:28:48;;;;;;;93.57;60.92;;;103.20;2227.20;;;;;;4975255;28;20434;-88
2022/12/14 17:31:16;;;;;;;126.75;76.63;;;103.30;2227.20;;;;;;4975001;28;20034;-89
2022/12/14 17:33:42;;;;;;;109.75;73.25;;;103.30;2227.20;;;;;;4974719;28;20038;-88
2022/12/14 17:36:08;;;;;;;98.32;68.50;;;103.30;2227.20;;;;;;4974711;28;20379;-86
2022/12/14 17:38:34;;;;;;;108.35;78.50;;;103.30;2227.20;;;;;;4975069;28;20031;-88
2022/12/14 17:41:00;;;;;;;115.20;76.97;;;103.30;2227.20;;;;;;4974605;28;20486;-90
2022/12/14 17:43:27;;;;;;;112.45;81.10;;;103.30;2227.20;;;;;;4974965;28;20038;-89
2022/12/14 17:45:53;;;;;;;116.25;80.47;;;103.30;2227.20;;;;;;4969942;28;20042;-88
2022/12/14 17:48:20;;;;;;;114.85;81.15;;;103.30;2227.20;;;;;;4970844;28;20502;-87
2022/12/14 17:50:48;;;;;;;98.22;69.03;;;103.30;2227.20;;;;;;4970741;28;20113;-88
2022/12/14 17:53:22;;;;;;;77.80;54.00;;;103.30;2227.20;;;;;;4971673;28;20034;-88
2022/12/14 17:55:48;;;;;;;72.63;51.70;;;103.30;2227.20;;;;;;4971346;28;20117;-89
2022/12/14 17:58:15;;;;;;;87.10;61.15;;;103.30;2227.20;;;;;;4971499;28;20456;-88
2022/12/14 18:00:59;;;;;;;98.50;69.85;;;103.30;2227.20;;;;;;4971462;28;20031;-88
2022/12/14 18:03:28;;;;;;;84.97;57.28;;;103.30;2227.20;;;;;;4970997;28;20585;-88
2022/12/14 18:05:54;;;;;;;97.05;65.28;;;103.30;2227.20;;;;;;4971225;28;20539;-90
2022/12/14 18:08:21;;;;;;;82.72;57.00;;;103.20;2227.20;;;;;;4971085;28;20027;-87
2022/12/14 18:10:57;;;;;;;91.25;63.17;;;103.20;2227.20;;;;;;4971253;28;20023;-88
2022/12/14 18:13:23;;;;;;;77.45;52.78;;;103.20;2227.20;;;;;;4971174;28;20031;-89
2022/12/14 18:15:51;;;;;;;77.47;53.92;;;103.20;2227.20;;;;;;4970922;28;20486;-87
2022/12/14 18:18:19;;;;;;;81.60;54.97;;;103.30;2227.20;;;;;;4971377;28;20468;-90
2022/12/14 18:20:50;;;;;;;70.90;49.72;;;103.20;2227.20;;;;;;4970989;28;20035;-85
2022/12/14 18:23:17;;;;;;;70.85;45.83;;;103.20;2227.20;;;;;;4970824;28;20081;-89
2022/12/14 18:25:46;;;;;;;69.97;46.42;;;103.30;2227.20;;;;;;4970965;28;20043;-88
2022/12/14 18:28:13;;;;;;;66.13;47.30;;;103.20;2227.20;;;;;;4971250;28;20387;-89
2022/12/14 18:30:43;;;;;;;71.03;48.38;;;103.20;2227.20;;;;;;4970958;28;20075;-87
2022/12/14 18:33:16;;;;;;;74.72;49.42;;;103.20;2227.20;;;;;;4971145;28;20023;-88
2022/12/14 18:35:44;;;;;;;68.18;46.67;;;103.20;2227.20;;;;;;4971099;28;20063;-88
2022/12/14 18:38:10;;;;;;;84.53;56.05;;;103.20;2227.20;;;;;;4970765;28;20050;-86
2022/12/14 18:40:36;;;;;;;111.10;71.95;;;103.20;2227.20;;;;;;4971106;28;20034;-89
2022/12/14 18:43:02;;;;;;;90.07;60.28;;;103.20;2227.20;;;;;;4971076;28;20505;-89
2022/12/14 18:45:33;;;;;;;82.90;53.80;;;103.20;2227.20;;;;;;4970448;28;20063;-89
2022/12/14 18:48:00;;;;;;;69.95;49.00;;;103.10;2227.20;;;;;;4971163;28;20475;-88
2022/12/14 18:50:27;;;;;;;82.88;56.90;;;103.10;2227.20;;;;;;4970727;28;20122;-87
2022/12/14 18:52:54;;;;;;;87.60;55.10;;;103.10;2227.20;;;;;;4970727;28;20038;-90
2022/12/14 18:55:29;;;;;;;112.35;72.05;;;103.20;2227.20;;;;;;4970425;28;20035;-88
2022/12/14 18:57:57;;;;;;;96.70;65.20;;;103.20;2227.20;;;;;;4970562;28;20086;-89
2022/12/14 19:00:26;;;;;;;66.82;47.38;;;103.20;2227.20;;;;;;4970728;28;20024;-89
2022/12/14 19:02:56;;;;;;;48.95;35.92;;;103.20;2227.20;;;;;;4970618;28;20122;-88
2022/12/14 19:05:22;;;;;;;68.68;51.17;;;103.20;2227.20;;;;;;4970364;28;20047;-86
2022/12/14 19:07:49;;;;;;;75.18;53.10;;;103.20;2227.20;;;;;;4970768;28;20074;-87
2022/12/14 19:10:25;;;;;;;87.38;58.15;;;103.30;2227.20;;;;;;4970650;28;20031;-88
2022/12/14 19:12:54;;;;;;;52.65;41.58;;;103.30;2227.20;;;;;;4955690;28;20034;-85
2022/12/14 19:15:34;;;;;;;78.35;55.20;;;103.20;2227.20;;;;;;4970305;28;20059;-87
2022/12/14 19:18:00;;;;;;;77.43;51.63;;;103.20;2227.20;;;;;;4970122;28;20101;-88
2022/12/14 19:20:28;;;;;;;68.35;46.22;;;103.20;2227.20;;;;;;4970120;28;20027;-88
2022/12/14 19:22:54;;;;;;;59.00;44.40;;;103.20;2227.20;;;;;;4970267;28;20023;-85
2022/12/14 19:25:22;;;;;;;51.80;40.50;;;103.20;2227.20;;;;;;4973260;28;20134;-87
2022/12/14 19:27:48;;;;;;;57.40;42.33;;;103.30;2227.20;;;;;;4974199;28;20038;-87
2022/12/14 19:30:21;;;;;;;60.55;43.60;;;103.30;2227.20;;;;;;4974315;28;20122;-87
2022/12/14 19:32:51;;;;;;;;;;;103.30;2227.20;;;;;;4974552;28;20027;-89
2022/12/14 19:35:17;;;;;;;93.18;60.50;;;103.30;2227.20;;;;;;4957916;29;19949;-84
2022/12/14 19:37:44;;;;;;;104.90;69.30;;;103.30;2227.20;;;;;;4974079;28;20039;-88
2022/12/14 19:40:10;;;;;;;106.05;74.00;;;128.00;2252.80;;;;;;4973975;28;20089;-89
2022/12/14 19:42:36;;;;;;;128.45;92.78;;;128.00;2252.80;;;;;;4974051;28;20387;-91
2022/12/14 19:45:02;;;;;;;138.43;100.40;;;128.00;2252.80;;;;;;4973748;28;20039;-88
2022/12/14 19:47:28;;;;;;;142.05;101.25;;;128.00;2252.80;;;;;;4973637;28;20029;-87
2022/12/14 19:49:54;;;;;;;152.65;111.35;;;128.00;2252.80;;;;;;4973850;28;20027;-90
2022/12/14 19:52:20;;;;;;;122.18;88.57;;;103.30;2227.20;;;;;;4973800;28;20031;-88
2022/12/14 19:54:46;;;;;;;109.00;77.55;;;103.30;2227.20;;;;;;4973658;28;20103;-89
2022/12/14 19:57:12;;;;;;;108.40;77.68;;;103.30;2227.20;;;;;;4973687;28;20091;-87
2022/12/14 19:59:38;;;;;;;118.38;83.63;;;103.30;2227.20;;;;;;4973861;28;20027;-88
2022/12/14 20:02:04;;;;;;;119.03;82.10;;;103.30;2227.20;;;;;;4973517;28;20444;-85
2022/12/14 20:04:30;;;;;;;129.23;88.20;;;103.30;2227.20;;;;;;4973429;28;20039;-87
2022/12/14 20:06:56;;;;;;;110.72;73.70;;;103.30;2227.20;;;;;;4973367;28;20027;-88
2022/12/14 20:09:22;;;;;;;82.10;55.63;;;103.30;2227.20;;;;;;4973230;28;20030;-86
2022/12/14 20:11:47;;;;;;;83.32;51.95;;;103.30;2227.20;;;;;;4973303;28;20023;-87
2022/12/14 20:14:14;;;;;;;79.00;51.38;;;103.30;2227.20;;;;;;4978925;28;20015;-87
2022/12/14 20:16:40;;;;;;;86.90;52.75;;;103.30;2227.20;;;;;;4996254;28;20035;-88
2022/12/14 20:19:06;;;;;;;86.55;54.30;;;103.30;2227.20;;;;;;4974155;28;20463;-87
2022/12/14 20:21:33;;;;;;;72.95;54.88;;;103.30;2227.20;;;;;;4973890;28;20035;-88
2022/12/14 20:24:02;;;;;;;89.20;61.35;;;128.00;2252.80;;;;;;4973236;28;20462;-88
2022/12/14 20:26:29;;;;;;;77.32;56.45;;;128.00;2252.80;;;;;;4973212;28;20038;-88
2022/12/14 20:28:59;;;;;;;107.10;73.85;;;128.00;2252.80;;;;;;4972944;28;20127;-85
2022/12/14 20:31:26;;;;;;;100.57;69.53;;;128.00;2252.80;;;;;;4972911;28;20031;-87
2022/12/14 20:33:52;;;;;;;98.95;68.75;;;128.00;2252.80;;;;;;4972664;28;20388;-85
2022/12/14 20:36:20;;;;;;;85.35;60.03;;;128.00;2252.80;;;;;;4972199;28;20031;-85
2022/12/14 20:38:46;;;;;;;90.47;65.68;;;128.00;2252.80;;;;;;4972612;28;20122;-82
2022/12/14 20:41:14;;;;;;;92.85;59.58;;;128.00;2252.80;;;;;;4972889;28;20034;-86
2022/12/14 20:43:42;;;;;;;104.13;73.30;;;128.40;2252.80;;;;;;4972273;28;20122;-85
2022/12/14 20:46:39;;;;;;;128.85;92.40;;;128.00;2252.80;;;;;;4972534;28;20034;-88
2022/12/14 20:49:17;;;;;;;129.85;88.72;;;128.00;2252.80;;;;;;4953380;28;20039;-86
2022/12/14 20:51:44;;;;;;;145.93;99.93;;;128.00;2252.80;;;;;;4972709;28;20049;-88
2022/12/14 20:54:16;;;;;;;121.57;87.25;;;128.00;2252.80;;;;;;4972747;28;20046;-88
2022/12/14 20:56:43;;;;;;;81.95;60.33;;;103.30;2227.20;;;;;;4972613;28;20059;-85
2022/12/14 20:59:09;;;;;;;84.93;61.72;;;103.30;2227.20;;;;;;4972514;28;20019;-87
2022/12/14 21:01:36;;;;;;;68.38;49.38;;;103.30;2227.20;;;;;;4972268;28;20027;-89